sensor_id;sensor_type;location;lat;lon;timestamp;temperature;humidity
71177;DHT22;58877;51.992;4.504;2023-02-26T00:01:13;4.22;68.10
71177;DHT22;58877;51.992;4.504;2023-02-26T00:03:39;4.20;68.48
71177;DHT22;58877;51.992;4.504;2023-02-26T00:06:05;4.17;68.67
71177;DHT22;58877;51.992;4.504;2023-02-26T00:08:31;4.07;69.10
71177;DHT22;58877;51.992;4.504;2023-02-26T00:10:57;4.16;69.03
71177;DHT22;58877;51.992;4.504;2023-02-26T00:13:25;4.16;69.22
71177;DHT22;58877;51.992;4.504;2023-02-26T00:15:57;4.18;69.14
71177;DHT22;58877;51.992;4.504;2023-02-26T00:18:24;4.22;69.19
71177;DHT22;58877;51.992;4.504;2023-02-26T00:20:49;4.22;68.94
71177;DHT22;58877;51.992;4.504;2023-02-26T00:23:15;4.16;69.25
71177;DHT22;58877;51.992;4.504;2023-02-26T00:25:41;4.11;69.48
71177;DHT22;58877;51.992;4.504;2023-02-26T00:28:08;4.08;69.62
71177;DHT22;58877;51.992;4.504;2023-02-26T00:30:34;4.04;69.88
71177;DHT22;58877;51.992;4.504;2023-02-26T00:33:00;4.00;70.02
71177;DHT22;58877;51.992;4.504;2023-02-26T00:35:26;4.01;70.04
71177;DHT22;58877;51.992;4.504;2023-02-26T00:38:08;4.03;70.24
71177;DHT22;58877;51.992;4.504;2023-02-26T00:40:47;3.98;70.34
71177;DHT22;58877;51.992;4.504;2023-02-26T00:43:20;3.98;70.55
71177;DHT22;58877;51.992;4.504;2023-02-26T00:47:14;3.93;70.72
71177;DHT22;58877;51.992;4.504;2023-02-26T00:51:58;3.90;70.66
71177;DHT22;58877;51.992;4.504;2023-02-26T00:54:30;3.87;70.47
71177;DHT22;58877;51.992;4.504;2023-02-26T00:56:57;3.83;70.21
71177;DHT22;58877;51.992;4.504;2023-02-26T00:59:24;3.86;70.05
71177;DHT22;58877;51.992;4.504;2023-02-26T01:01:51;3.84;69.76
71177;DHT22;58877;51.992;4.504;2023-02-26T01:04:20;3.89;69.87
71177;DHT22;58877;51.992;4.504;2023-02-26T01:06:53;3.97;69.86
71177;DHT22;58877;51.992;4.504;2023-02-26T01:09:31;4.08;69.63
71177;DHT22;58877;51.992;4.504;2023-02-26T01:12:01;4.03;69.72
71177;DHT22;58877;51.992;4.504;2023-02-26T01:14:29;4.01;69.63
71177;DHT22;58877;51.992;4.504;2023-02-26T01:20:16;4.07;70.00
71177;DHT22;58877;51.992;4.504;2023-02-26T01:22:51;4.08;70.00
71177;DHT22;58877;51.992;4.504;2023-02-26T01:27:46;3.98;70.13
71177;DHT22;58877;51.992;4.504;2023-02-26T01:30:12;3.94;69.89
71177;DHT22;58877;51.992;4.504;2023-02-26T01:43:21;3.89;69.02
71177;DHT22;58877;51.992;4.504;2023-02-26T01:45:57;3.84;69.09
71177;DHT22;58877;51.992;4.504;2023-02-26T01:48:48;3.80;69.41
71177;DHT22;58877;51.992;4.504;2023-02-26T01:51:15;3.77;69.45
71177;DHT22;58877;51.992;4.504;2023-02-26T01:53:41;3.80;69.26
71177;DHT22;58877;51.992;4.504;2023-02-26T01:56:16;3.74;69.46
71177;DHT22;58877;51.992;4.504;2023-02-26T01:58:43;3.64;69.85
71177;DHT22;58877;51.992;4.504;2023-02-26T02:01:10;3.56;69.87
71177;DHT22;58877;51.992;4.504;2023-02-26T02:03:38;3.56;69.89
71177;DHT22;58877;51.992;4.504;2023-02-26T02:06:08;3.51;70.04
71177;DHT22;58877;51.992;4.504;2023-02-26T02:08:36;3.58;69.76
71177;DHT22;58877;51.992;4.504;2023-02-26T02:11:07;3.56;69.76
71177;DHT22;58877;51.992;4.504;2023-02-26T02:27:12;3.44;69.43
71177;DHT22;58877;51.992;4.504;2023-02-26T02:33:13;3.40;69.39
71177;DHT22;58877;51.992;4.504;2023-02-26T02:35:54;3.33;69.26
71177;DHT22;58877;51.992;4.504;2023-02-26T02:38:33;3.26;69.32
71177;DHT22;58877;51.992;4.504;2023-02-26T02:41:21;3.18;69.24
71177;DHT22;58877;51.992;4.504;2023-02-26T02:43:51;3.18;69.14
71177;DHT22;58877;51.992;4.504;2023-02-26T02:46:26;3.04;68.89
71177;DHT22;58877;51.992;4.504;2023-02-26T02:52:24;2.91;69.08
71177;DHT22;58877;51.992;4.504;2023-02-26T02:55:01;2.91;69.00
71177;DHT22;58877;51.992;4.504;2023-02-26T02:57:45;2.89;69.05
71177;DHT22;58877;51.992;4.504;2023-02-26T03:00:13;2.87;69.14
71177;DHT22;58877;51.992;4.504;2023-02-26T03:04:02;2.84;69.32
71177;DHT22;58877;51.992;4.504;2023-02-26T03:05:54;2.73;69.59
71177;DHT22;58877;51.992;4.504;2023-02-26T03:08:24;2.70;69.72
71177;DHT22;58877;51.992;4.504;2023-02-26T03:10:50;2.68;69.78
71177;DHT22;58877;51.992;4.504;2023-02-26T03:13:19;2.68;69.80
71177;DHT22;58877;51.992;4.504;2023-02-26T03:18:54;2.61;70.18
71177;DHT22;58877;51.992;4.504;2023-02-26T03:21:26;2.67;69.81
71177;DHT22;58877;51.992;4.504;2023-02-26T03:26:54;2.57;70.18
71177;DHT22;58877;51.992;4.504;2023-02-26T03:29:42;2.56;70.22
71177;DHT22;58877;51.992;4.504;2023-02-26T03:32:26;2.60;70.00
71177;DHT22;58877;51.992;4.504;2023-02-26T03:35:14;2.50;69.97
71177;DHT22;58877;51.992;4.504;2023-02-26T03:37:47;2.46;70.13
71177;DHT22;58877;51.992;4.504;2023-02-26T03:40:36;2.48;70.08
71177;DHT22;58877;51.992;4.504;2023-02-26T03:43:18;2.46;69.83
71177;DHT22;58877;51.992;4.504;2023-02-26T03:45:49;2.37;69.93
71177;DHT22;58877;51.992;4.504;2023-02-26T03:48:22;2.41;69.68
71177;DHT22;58877;51.992;4.504;2023-02-26T03:50:51;2.40;69.05
71177;DHT22;58877;51.992;4.504;2023-02-26T03:53:24;2.41;68.73
71177;DHT22;58877;51.992;4.504;2023-02-26T03:58:29;2.46;68.38
71177;DHT22;58877;51.992;4.504;2023-02-26T04:01:02;2.43;67.81
71177;DHT22;58877;51.992;4.504;2023-02-26T04:06:01;2.47;67.43
71177;DHT22;58877;51.992;4.504;2023-02-26T04:08:29;2.43;67.31
71177;DHT22;58877;51.992;4.504;2023-02-26T04:11:04;2.46;67.26
71177;DHT22;58877;51.992;4.504;2023-02-26T04:13:31;2.43;67.06
71177;DHT22;58877;51.992;4.504;2023-02-26T04:15:56;2.40;67.10
71177;DHT22;58877;51.992;4.504;2023-02-26T04:18:22;2.33;67.39
71177;DHT22;58877;51.992;4.504;2023-02-26T04:20:47;2.34;67.42
71177;DHT22;58877;51.992;4.504;2023-02-26T04:23:14;2.41;67.45
71177;DHT22;58877;51.992;4.504;2023-02-26T04:25:39;2.41;67.30
71177;DHT22;58877;51.992;4.504;2023-02-26T04:28:05;2.24;67.55
71177;DHT22;58877;51.992;4.504;2023-02-26T04:30:30;2.17;67.70
71177;DHT22;58877;51.992;4.504;2023-02-26T04:32:56;2.20;67.94
71177;DHT22;58877;51.992;4.504;2023-02-26T04:35:22;2.14;67.76
71177;DHT22;58877;51.992;4.504;2023-02-26T04:37:47;2.17;67.69
71177;DHT22;58877;51.992;4.504;2023-02-26T04:40:13;2.13;67.71
71177;DHT22;58877;51.992;4.504;2023-02-26T04:42:39;2.16;67.65
71177;DHT22;58877;51.992;4.504;2023-02-26T04:45:05;2.14;67.71
71177;DHT22;58877;51.992;4.504;2023-02-26T04:47:34;2.14;67.61
71177;DHT22;58877;51.992;4.504;2023-02-26T04:49:59;2.12;67.59
71177;DHT22;58877;51.992;4.504;2023-02-26T04:52:25;2.10;67.64
71177;DHT22;58877;51.992;4.504;2023-02-26T04:54:51;2.09;67.87
71177;DHT22;58877;51.992;4.504;2023-02-26T04:57:16;2.09;67.90
71177;DHT22;58877;51.992;4.504;2023-02-26T04:59:42;2.05;68.16
71177;DHT22;58877;51.992;4.504;2023-02-26T05:02:07;2.10;68.09
71177;DHT22;58877;51.992;4.504;2023-02-26T05:04:33;2.13;68.01
71177;DHT22;58877;51.992;4.504;2023-02-26T05:06:59;2.10;67.96
71177;DHT22;58877;51.992;4.504;2023-02-26T05:09:24;1.99;68.02
71177;DHT22;58877;51.992;4.504;2023-02-26T05:11:50;2.03;68.12
71177;DHT22;58877;51.992;4.504;2023-02-26T05:14:16;2.00;68.12
71177;DHT22;58877;51.992;4.504;2023-02-26T05:16:41;1.99;68.32
71177;DHT22;58877;51.992;4.504;2023-02-26T05:19:08;1.95;68.40
71177;DHT22;58877;51.992;4.504;2023-02-26T05:21:33;1.95;68.44
71177;DHT22;58877;51.992;4.504;2023-02-26T05:23:59;1.96;68.44
71177;DHT22;58877;51.992;4.504;2023-02-26T05:26:25;1.96;68.47
71177;DHT22;58877;51.992;4.504;2023-02-26T05:28:51;1.92;68.58
71177;DHT22;58877;51.992;4.504;2023-02-26T05:31:17;1.93;68.66
71177;DHT22;58877;51.992;4.504;2023-02-26T05:33:42;1.95;68.72
71177;DHT22;58877;51.992;4.504;2023-02-26T05:36:08;1.89;68.67
71177;DHT22;58877;51.992;4.504;2023-02-26T05:38:34;1.86;69.15
71177;DHT22;58877;51.992;4.504;2023-02-26T05:41:00;1.85;69.19
71177;DHT22;58877;51.992;4.504;2023-02-26T05:43:29;1.78;69.30
71177;DHT22;58877;51.992;4.504;2023-02-26T05:45:54;1.69;69.53
71177;DHT22;58877;51.992;4.504;2023-02-26T05:48:21;1.68;69.75
71177;DHT22;58877;51.992;4.504;2023-02-26T05:50:48;1.69;69.42
71177;DHT22;58877;51.992;4.504;2023-02-26T05:53:14;1.66;69.29
71177;DHT22;58877;51.992;4.504;2023-02-26T05:55:39;1.66;69.30
71177;DHT22;58877;51.992;4.504;2023-02-26T05:58:05;1.66;69.29
71177;DHT22;58877;51.992;4.504;2023-02-26T06:00:31;1.61;69.35
71177;DHT22;58877;51.992;4.504;2023-02-26T06:02:56;1.63;69.50
71177;DHT22;58877;51.992;4.504;2023-02-26T06:05:22;1.69;69.42
71177;DHT22;58877;51.992;4.504;2023-02-26T06:07:48;1.62;69.57
71177;DHT22;58877;51.992;4.504;2023-02-26T06:10:13;1.66;69.70
71177;DHT22;58877;51.992;4.504;2023-02-26T06:12:39;1.65;69.88
71177;DHT22;58877;51.992;4.504;2023-02-26T06:15:06;1.59;70.14
71177;DHT22;58877;51.992;4.504;2023-02-26T06:17:32;1.63;70.07
71177;DHT22;58877;51.992;4.504;2023-02-26T06:19:58;1.61;69.89
71177;DHT22;58877;51.992;4.504;2023-02-26T06:22:24;1.52;70.39
71177;DHT22;58877;51.992;4.504;2023-02-26T06:24:49;1.51;70.64
71177;DHT22;58877;51.992;4.504;2023-02-26T06:27:16;1.44;70.89
71177;DHT22;58877;51.992;4.504;2023-02-26T06:29:41;1.38;71.25
71177;DHT22;58877;51.992;4.504;2023-02-26T06:32:08;1.31;71.46
71177;DHT22;58877;51.992;4.504;2023-02-26T06:34:33;1.25;71.67
71177;DHT22;58877;51.992;4.504;2023-02-26T06:36:59;1.20;71.97
71177;DHT22;58877;51.992;4.504;2023-02-26T06:39:24;1.23;72.11
71177;DHT22;58877;51.992;4.504;2023-02-26T06:41:50;1.14;72.27
71177;DHT22;58877;51.992;4.504;2023-02-26T06:44:15;1.18;72.45
71177;DHT22;58877;51.992;4.504;2023-02-26T06:46:44;1.18;72.33
71177;DHT22;58877;51.992;4.504;2023-02-26T06:49:10;1.15;72.81
71177;DHT22;58877;51.992;4.504;2023-02-26T06:51:35;1.20;73.03
71177;DHT22;58877;51.992;4.504;2023-02-26T06:54:02;1.20;73.03
71177;DHT22;58877;51.992;4.504;2023-02-26T06:56:27;1.21;73.03
71177;DHT22;58877;51.992;4.504;2023-02-26T06:58:53;1.14;73.42
71177;DHT22;58877;51.992;4.504;2023-02-26T07:01:19;1.18;73.19
71177;DHT22;58877;51.992;4.504;2023-02-26T07:03:45;1.25;72.97
71177;DHT22;58877;51.992;4.504;2023-02-26T07:06:11;1.23;72.95
71177;DHT22;58877;51.992;4.504;2023-02-26T07:08:38;1.27;72.97
71177;DHT22;58877;51.992;4.504;2023-02-26T07:11:07;1.28;72.68
71177;DHT22;58877;51.992;4.504;2023-02-26T07:13:36;1.38;72.53
71177;DHT22;58877;51.992;4.504;2023-02-26T07:16:09;1.39;72.26
71177;DHT22;58877;51.992;4.504;2023-02-26T07:18:36;1.39;72.10
71177;DHT22;58877;51.992;4.504;2023-02-26T07:21:05;1.52;71.85
71177;DHT22;58877;51.992;4.504;2023-02-26T07:23:32;1.48;71.76
71177;DHT22;58877;51.992;4.504;2023-02-26T07:25:57;1.56;71.57
71177;DHT22;58877;51.992;4.504;2023-02-26T07:28:24;1.59;71.25
71177;DHT22;58877;51.992;4.504;2023-02-26T07:30:55;1.71;70.67
71177;DHT22;58877;51.992;4.504;2023-02-26T07:33:24;1.76;70.15
71177;DHT22;58877;51.992;4.504;2023-02-26T07:35:53;1.85;69.63
71177;DHT22;58877;51.992;4.504;2023-02-26T07:38:19;2.03;69.12
71177;DHT22;58877;51.992;4.504;2023-02-26T07:40:47;2.10;68.33
71177;DHT22;58877;51.992;4.504;2023-02-26T07:43:12;2.19;67.54
71177;DHT22;58877;51.992;4.504;2023-02-26T07:45:51;2.32;67.42
71177;DHT22;58877;51.992;4.504;2023-02-26T07:48:17;2.43;66.99
71177;DHT22;58877;51.992;4.504;2023-02-26T07:50:44;2.57;66.74
71177;DHT22;58877;51.992;4.504;2023-02-26T07:53:10;2.68;66.02
71177;DHT22;58877;51.992;4.504;2023-02-26T07:55:36;2.70;65.31
71177;DHT22;58877;51.992;4.504;2023-02-26T07:58:02;2.84;65.00
71177;DHT22;58877;51.992;4.504;2023-02-26T08:00:28;3.01;64.73
71177;DHT22;58877;51.992;4.504;2023-02-26T08:02:54;3.04;64.15
71177;DHT22;58877;51.992;4.504;2023-02-26T08:05:20;3.19;63.40
71177;DHT22;58877;51.992;4.504;2023-02-26T08:07:46;3.26;63.05
71177;DHT22;58877;51.992;4.504;2023-02-26T08:10:11;3.21;62.03
71177;DHT22;58877;51.992;4.504;2023-02-26T08:12:37;3.07;61.45
71177;DHT22;58877;51.992;4.504;2023-02-26T08:15:03;3.11;61.15
71177;DHT22;58877;51.992;4.504;2023-02-26T08:17:29;3.36;61.17
71177;DHT22;58877;51.992;4.504;2023-02-26T08:19:55;3.49;61.17
71177;DHT22;58877;51.992;4.504;2023-02-26T08:22:20;3.53;60.45
71177;DHT22;58877;51.992;4.504;2023-02-26T08:24:48;3.51;60.19
71177;DHT22;58877;51.992;4.504;2023-02-26T08:27:14;3.58;60.92
71177;DHT22;58877;51.992;4.504;2023-02-26T08:29:40;3.70;60.80
71177;DHT22;58877;51.992;4.504;2023-02-26T08:32:06;3.79;59.54
71177;DHT22;58877;51.992;4.504;2023-02-26T08:34:31;3.77;59.31
71177;DHT22;58877;51.992;4.504;2023-02-26T08:36:57;3.63;57.56
71177;DHT22;58877;51.992;4.504;2023-02-26T08:39:22;3.69;57.56
71177;DHT22;58877;51.992;4.504;2023-02-26T08:41:48;3.72;57.27
71177;DHT22;58877;51.992;4.504;2023-02-26T08:44:13;3.82;57.50
71177;DHT22;58877;51.992;4.504;2023-02-26T08:46:39;3.84;57.41
71177;DHT22;58877;51.992;4.504;2023-02-26T08:49:05;4.01;56.83
71177;DHT22;58877;51.992;4.504;2023-02-26T08:51:32;4.17;56.93
71177;DHT22;58877;51.992;4.504;2023-02-26T08:53:57;4.27;56.60
71177;DHT22;58877;51.992;4.504;2023-02-26T08:56:23;4.36;56.82
71177;DHT22;58877;51.992;4.504;2023-02-26T08:58:49;4.37;56.21
71177;DHT22;58877;51.992;4.504;2023-02-26T09:01:14;4.27;55.12
71177;DHT22;58877;51.992;4.504;2023-02-26T09:03:40;4.28;56.14
71177;DHT22;58877;51.992;4.504;2023-02-26T09:06:05;4.37;56.09
71177;DHT22;58877;51.992;4.504;2023-02-26T09:08:31;4.28;54.62
71177;DHT22;58877;51.992;4.504;2023-02-26T09:10:59;4.24;55.70
71177;DHT22;58877;51.992;4.504;2023-02-26T09:13:25;4.20;54.90
71177;DHT22;58877;51.992;4.504;2023-02-26T09:15:51;4.33;55.01
71177;DHT22;58877;51.992;4.504;2023-02-26T09:18:17;4.40;56.27
71177;DHT22;58877;51.992;4.504;2023-02-26T09:20:44;4.61;55.41
71177;DHT22;58877;51.992;4.504;2023-02-26T09:23:11;4.78;54.80
71177;DHT22;58877;51.992;4.504;2023-02-26T09:25:37;4.67;55.22
71177;DHT22;58877;51.992;4.504;2023-02-26T09:28:03;4.55;53.45
71177;DHT22;58877;51.992;4.504;2023-02-26T09:30:29;4.52;53.15
71177;DHT22;58877;51.992;4.504;2023-02-26T09:32:55;4.61;53.39
71177;DHT22;58877;51.992;4.504;2023-02-26T09:35:21;4.81;53.16
71177;DHT22;58877;51.992;4.504;2023-02-26T09:37:47;4.73;53.59
71177;DHT22;58877;51.992;4.504;2023-02-26T09:51:43;4.92;51.90
71177;DHT22;58877;51.992;4.504;2023-02-26T09:54:22;5.02;52.33
71177;DHT22;58877;51.992;4.504;2023-02-26T09:56:51;5.12;51.43
71177;DHT22;58877;51.992;4.504;2023-02-26T09:59:17;5.18;51.35
71177;DHT22;58877;51.992;4.504;2023-02-26T10:02:15;5.08;50.75
71177;DHT22;58877;51.992;4.504;2023-02-26T10:05:08;4.93;51.18
71177;DHT22;58877;51.992;4.504;2023-02-26T10:10:18;4.76;51.82
71177;DHT22;58877;51.992;4.504;2023-02-26T10:12:48;4.76;50.89
71177;DHT22;58877;51.992;4.504;2023-02-26T10:15:27;5.02;52.09
71177;DHT22;58877;51.992;4.504;2023-02-26T10:18:09;5.19;51.16
71177;DHT22;58877;51.992;4.504;2023-02-26T10:23:41;5.27;50.01
71177;DHT22;58877;51.992;4.504;2023-02-26T10:26:18;5.46;50.97
71177;DHT22;58877;51.992;4.504;2023-02-26T10:34:58;5.86;49.28
71177;DHT22;58877;51.992;4.504;2023-02-26T10:38:08;6.05;49.56
71177;DHT22;58877;51.992;4.504;2023-02-26T10:40:26;6.22;49.54
71177;DHT22;58877;51.992;4.504;2023-02-26T10:43:13;6.01;48.29
71177;DHT22;58877;51.992;4.504;2023-02-26T10:51:30;5.93;49.56
71177;DHT22;58877;51.992;4.504;2023-02-26T10:56:49;5.66;48.61
71177;DHT22;58877;51.992;4.504;2023-02-26T10:59:14;5.93;50.78
71177;DHT22;58877;51.992;4.504;2023-02-26T11:01:40;6.21;49.60
71177;DHT22;58877;51.992;4.504;2023-02-26T11:04:11;6.41;49.04
71177;DHT22;58877;51.992;4.504;2023-02-26T11:06:48;6.61;49.28
71177;DHT22;58877;51.992;4.504;2023-02-26T11:09:24;6.59;48.80
71177;DHT22;58877;51.992;4.504;2023-02-26T11:11:54;6.50;48.85
71177;DHT22;58877;51.992;4.504;2023-02-26T11:14:21;6.48;49.16
71177;DHT22;58877;51.992;4.504;2023-02-26T11:17:00;6.73;48.62
71177;DHT22;58877;51.992;4.504;2023-02-26T11:19:37;6.77;48.83
71177;DHT22;58877;51.992;4.504;2023-02-26T11:22:05;6.80;48.36
71177;DHT22;58877;51.992;4.504;2023-02-26T11:24:41;6.87;48.98
71177;DHT22;58877;51.992;4.504;2023-02-26T11:27:21;6.62;48.05
71177;DHT22;58877;51.992;4.504;2023-02-26T11:29:56;6.69;47.81
71177;DHT22;58877;51.992;4.504;2023-02-26T11:32:29;6.72;48.55
71177;DHT22;58877;51.992;4.504;2023-02-26T11:34:55;6.61;49.04
71177;DHT22;58877;51.992;4.504;2023-02-26T11:37:33;6.33;48.55
71177;DHT22;58877;51.992;4.504;2023-02-26T11:40:20;6.08;49.35
71177;DHT22;58877;51.992;4.504;2023-02-26T11:42:53;6.21;49.34
71177;DHT22;58877;51.992;4.504;2023-02-26T11:45:21;6.32;48.21
71177;DHT22;58877;51.992;4.504;2023-02-26T11:47:50;6.35;49.90
71177;DHT22;58877;51.992;4.504;2023-02-26T11:50:22;6.43;47.96
71177;DHT22;58877;51.992;4.504;2023-02-26T11:52:55;6.12;49.27
71177;DHT22;58877;51.992;4.504;2023-02-26T11:55:28;6.31;50.42
71177;DHT22;58877;51.992;4.504;2023-02-26T11:57:55;6.49;48.61
71177;DHT22;58877;51.992;4.504;2023-02-26T12:00:34;6.79;49.08
71177;DHT22;58877;51.992;4.504;2023-02-26T12:03:16;6.68;47.39
71177;DHT22;58877;51.992;4.504;2023-02-26T12:05:42;6.52;48.29
71177;DHT22;58877;51.992;4.504;2023-02-26T12:08:19;6.43;48.63
71177;DHT22;58877;51.992;4.504;2023-02-26T12:25:25;7.57;47.87
71177;DHT22;58877;51.992;4.504;2023-02-26T12:31:13;7.41;46.72
71177;DHT22;58877;51.992;4.504;2023-02-26T12:42:44;7.20;49.21
71177;DHT22;58877;51.992;4.504;2023-02-26T12:51:36;6.61;50.89
71177;DHT22;58877;51.992;4.504;2023-02-26T12:54:29;6.56;50.40
71177;DHT22;58877;51.992;4.504;2023-02-26T13:05:32;6.56;50.31
71177;DHT22;58877;51.992;4.504;2023-02-26T13:08:14;6.59;50.49
71177;DHT22;58877;51.992;4.504;2023-02-26T13:19:21;6.53;49.95
71177;DHT22;58877;51.992;4.504;2023-02-26T13:21:57;6.55;49.00
71177;DHT22;58877;51.992;4.504;2023-02-26T13:24:33;6.72;49.73
71177;DHT22;58877;51.992;4.504;2023-02-26T13:27:04;7.13;50.43
71177;DHT22;58877;51.992;4.504;2023-02-26T13:29:46;7.38;50.05
71177;DHT22;58877;51.992;4.504;2023-02-26T13:32:23;7.24;48.90
71177;DHT22;58877;51.992;4.504;2023-02-26T13:34:55;7.10;49.18
71177;DHT22;58877;51.992;4.504;2023-02-26T13:37:42;6.79;50.30
71177;DHT22;58877;51.992;4.504;2023-02-26T13:43:21;6.93;50.50
71177;DHT22;58877;51.992;4.504;2023-02-26T13:51:37;7.50;49.95
71177;DHT22;58877;51.992;4.504;2023-02-26T13:54:08;7.40;50.88
71177;DHT22;58877;51.992;4.504;2023-02-26T13:57:09;7.07;50.68
71177;DHT22;58877;51.992;4.504;2023-02-26T14:04:59;7.27;51.76
71177;DHT22;58877;51.992;4.504;2023-02-26T14:07:46;7.57;49.73
71177;DHT22;58877;51.992;4.504;2023-02-26T14:10:44;7.75;49.85
71177;DHT22;58877;51.992;4.504;2023-02-26T14:13:16;7.91;48.76
71177;DHT22;58877;51.992;4.504;2023-02-26T14:15:58;8.01;49.49
71177;DHT22;58877;51.992;4.504;2023-02-26T14:18:41;7.79;48.63
71177;DHT22;58877;51.992;4.504;2023-02-26T14:23:56;7.79;48.05
71177;DHT22;58877;51.992;4.504;2023-02-26T14:26:24;7.86;48.86
71177;DHT22;58877;51.992;4.504;2023-02-26T14:29:06;7.92;49.60
71177;DHT22;58877;51.992;4.504;2023-02-26T14:34:53;7.54;47.56
71177;DHT22;58877;51.992;4.504;2023-02-26T14:37:24;7.60;48.87
71177;DHT22;58877;51.992;4.504;2023-02-26T14:39:58;7.86;49.44
71177;DHT22;58877;51.992;4.504;2023-02-26T14:48:01;8.03;48.61
71177;DHT22;58877;51.992;4.504;2023-02-26T14:50:49;8.33;47.50
71177;DHT22;58877;51.992;4.504;2023-02-26T14:56:20;8.33;47.39
71177;DHT22;58877;51.992;4.504;2023-02-26T15:01:45;8.33;48.58
71177;DHT22;58877;51.992;4.504;2023-02-26T15:07:13;9.27;42.11
71177;DHT22;58877;51.992;4.504;2023-02-26T15:09:53;9.24;41.91
71177;DHT22;58877;51.992;4.504;2023-02-26T15:18:21;9.41;40.98
71177;DHT22;58877;51.992;4.504;2023-02-26T15:21:05;9.71;41.00
71177;DHT22;58877;51.992;4.504;2023-02-26T15:23:46;10.13;40.57
71177;DHT22;58877;51.992;4.504;2023-02-26T15:26:24;9.82;41.81
71177;DHT22;58877;51.992;4.504;2023-02-26T15:28:52;9.97;41.01
71177;DHT22;58877;51.992;4.504;2023-02-26T15:31:28;10.41;41.26
71177;DHT22;58877;51.992;4.504;2023-02-26T15:33:56;10.14;39.29
71177;DHT22;58877;51.992;4.504;2023-02-26T15:36:23;9.48;39.46
71177;DHT22;58877;51.992;4.504;2023-02-26T15:38:59;9.35;40.04
71177;DHT22;58877;51.992;4.504;2023-02-26T15:41:27;9.71;40.54
71177;DHT22;58877;51.992;4.504;2023-02-26T15:44:04;9.75;40.85
71177;DHT22;58877;51.992;4.504;2023-02-26T15:46:35;9.95;40.65
71177;DHT22;58877;51.992;4.504;2023-02-26T15:49:28;9.46;41.87
71177;DHT22;58877;51.992;4.504;2023-02-26T15:51:56;9.31;42.00
71177;DHT22;58877;51.992;4.504;2023-02-26T15:54:33;8.99;42.17
71177;DHT22;58877;51.992;4.504;2023-02-26T15:57:02;9.27;42.71
71177;DHT22;58877;51.992;4.504;2023-02-26T15:59:31;9.25;43.72
71177;DHT22;58877;51.992;4.504;2023-02-26T16:02:00;9.63;41.42
71177;DHT22;58877;51.992;4.504;2023-02-26T16:04:26;9.54;41.90
71177;DHT22;58877;51.992;4.504;2023-02-26T16:06:55;9.20;42.34
71177;DHT22;58877;51.992;4.504;2023-02-26T16:11:56;8.80;43.39
71177;DHT22;58877;51.992;4.504;2023-02-26T16:14:28;8.84;42.36
71177;DHT22;58877;51.992;4.504;2023-02-26T16:16:55;7.82;44.85
71177;DHT22;58877;51.992;4.504;2023-02-26T16:19:35;7.30;46.70
71177;DHT22;58877;51.992;4.504;2023-02-26T16:22:29;7.07;47.96
71177;DHT22;58877;51.992;4.504;2023-02-26T16:25:05;6.89;49.03
71177;DHT22;58877;51.992;4.504;2023-02-26T16:27:34;6.76;49.51
71177;DHT22;58877;51.992;4.504;2023-02-26T16:30:03;6.68;49.72
71177;DHT22;58877;51.992;4.504;2023-02-26T16:32:33;6.63;50.42
71177;DHT22;58877;51.992;4.504;2023-02-26T16:35:15;6.63;51.01
71177;DHT22;58877;51.992;4.504;2023-02-26T16:37:45;6.73;51.07
71177;DHT22;58877;51.992;4.504;2023-02-26T16:43:03;6.68;51.66
71177;DHT22;58877;51.992;4.504;2023-02-26T16:48:01;6.46;51.89
71177;DHT22;58877;51.992;4.504;2023-02-26T16:50:31;6.43;52.20
71177;DHT22;58877;51.992;4.504;2023-02-26T16:53:19;6.38;52.36
71177;DHT22;58877;51.992;4.504;2023-02-26T16:55:51;6.32;52.81
71177;DHT22;58877;51.992;4.504;2023-02-26T16:58:18;6.28;53.07
71177;DHT22;58877;51.992;4.504;2023-02-26T17:00:53;6.25;53.32
71177;DHT22;58877;51.992;4.504;2023-02-26T17:03:24;6.17;53.55
71177;DHT22;58877;51.992;4.504;2023-02-26T17:08:23;6.12;54.43
71177;DHT22;58877;51.992;4.504;2023-02-26T17:11:00;6.18;54.65
71177;DHT22;58877;51.992;4.504;2023-02-26T17:13:32;6.02;54.95
71177;DHT22;58877;51.992;4.504;2023-02-26T17:16:03;6.00;55.30
71177;DHT22;58877;51.992;4.504;2023-02-26T17:18:29;5.90;55.70
71177;DHT22;58877;51.992;4.504;2023-02-26T17:20:56;5.74;56.77
71177;DHT22;58877;51.992;4.504;2023-02-26T17:23:29;5.67;56.97
71177;DHT22;58877;51.992;4.504;2023-02-26T17:25:56;5.71;57.14
71177;DHT22;58877;51.992;4.504;2023-02-26T17:28:30;5.64;57.35
71177;DHT22;58877;51.992;4.504;2023-02-26T17:30:56;5.50;58.00
71177;DHT22;58877;51.992;4.504;2023-02-26T17:33:22;5.50;58.47
71177;DHT22;58877;51.992;4.504;2023-02-26T17:35:48;5.47;58.61
71177;DHT22;58877;51.992;4.504;2023-02-26T17:38:15;5.47;59.10
71177;DHT22;58877;51.992;4.504;2023-02-26T17:40:45;5.46;59.38
71177;DHT22;58877;51.992;4.504;2023-02-26T17:43:12;5.36;59.82
71177;DHT22;58877;51.992;4.504;2023-02-26T17:45:39;5.30;59.80
71177;DHT22;58877;51.992;4.504;2023-02-26T17:48:06;5.27;60.11
71177;DHT22;58877;51.992;4.504;2023-02-26T17:50:44;5.25;60.07
71177;DHT22;58877;51.992;4.504;2023-02-26T17:53:18;5.25;59.98
71177;DHT22;58877;51.992;4.504;2023-02-26T17:55:46;5.11;60.11
71177;DHT22;58877;51.992;4.504;2023-02-26T18:00:44;5.12;60.27
71177;DHT22;58877;51.992;4.504;2023-02-26T18:03:14;5.11;60.01
71177;DHT22;58877;51.992;4.504;2023-02-26T18:05:42;5.18;59.91
71177;DHT22;58877;51.992;4.504;2023-02-26T18:08:34;5.08;59.62
71177;DHT22;58877;51.992;4.504;2023-02-26T18:11:01;5.06;59.69
71177;DHT22;58877;51.992;4.504;2023-02-26T18:13:27;5.00;59.63
71177;DHT22;58877;51.992;4.504;2023-02-26T18:15:54;5.00;59.73
71177;DHT22;58877;51.992;4.504;2023-02-26T18:18:23;4.97;59.83
71177;DHT22;58877;51.992;4.504;2023-02-26T18:20:50;4.88;60.25
71177;DHT22;58877;51.992;4.504;2023-02-26T18:23:16;4.83;60.67
71177;DHT22;58877;51.992;4.504;2023-02-26T18:25:48;4.83;61.16
71177;DHT22;58877;51.992;4.504;2023-02-26T18:28:18;4.85;61.34
71177;DHT22;58877;51.992;4.504;2023-02-26T18:30:46;4.79;61.88
71177;DHT22;58877;51.992;4.504;2023-02-26T18:33:12;4.82;62.49
71177;DHT22;58877;51.992;4.504;2023-02-26T18:35:42;4.83;62.98
71177;DHT22;58877;51.992;4.504;2023-02-26T18:38:14;4.75;63.42
71177;DHT22;58877;51.992;4.504;2023-02-26T18:40:40;4.65;64.13
71177;DHT22;58877;51.992;4.504;2023-02-26T18:43:06;4.68;64.35
71177;DHT22;58877;51.992;4.504;2023-02-26T18:45:37;4.59;64.67
71177;DHT22;58877;51.992;4.504;2023-02-26T18:48:03;4.58;64.86
71177;DHT22;58877;51.992;4.504;2023-02-26T18:50:30;4.52;65.00
71177;DHT22;58877;51.992;4.504;2023-02-26T18:52:55;4.59;64.89
71177;DHT22;58877;51.992;4.504;2023-02-26T18:55:21;4.54;65.38
71177;DHT22;58877;51.992;4.504;2023-02-26T18:57:47;4.48;65.80
71177;DHT22;58877;51.992;4.504;2023-02-26T19:00:13;4.47;66.13
71177;DHT22;58877;51.992;4.504;2023-02-26T19:02:44;4.42;66.52
71177;DHT22;58877;51.992;4.504;2023-02-26T19:05:12;4.40;66.53
71177;DHT22;58877;51.992;4.504;2023-02-26T19:07:43;4.37;66.68
71177;DHT22;58877;51.992;4.504;2023-02-26T19:10:12;4.34;66.93
71177;DHT22;58877;51.992;4.504;2023-02-26T19:12:42;4.38;66.94